| time (UTC) | temp F | wind direction | speed MPH | gust MPH | rain 1hr in | rain 24hr in | rain mn in | humidity % | barometer mb |
| 20260508225316 | 71 | 294 | 2.0 | 8.0 | 0.00 | 0.00 | 0.00 | 31 | 1045.2 |
| 20260508224814 | 71 | 214 | 2.0 | 6.0 | 0.00 | 0.00 | 0.00 | 30 | 1045.1 |
| 20260508224312 | 71 | 289 | 6.0 | 9.0 | 0.00 | 0.00 | 0.00 | 30 | 1045.1 |
| 20260508223809 | 71 | 211 | 2.0 | 9.0 | 0.00 | 0.00 | 0.00 | 32 | 1045.1 |
| 20260508223306 | 71 | 314 | 4.0 | 6.0 | 0.00 | 0.00 | 0.00 | 29 | 1045.1 |
| 20260508222804 | 72 | 288 | 7.0 | 11.0 | 0.00 | 0.00 | 0.00 | 30 | 1045.2 |
| 20260508222301 | 71 | 109 | 1.0 | 3.0 | 0.00 | 0.00 | 0.00 | 35 | 1045.0 |
| 20260508221757 | 72 | 301 | 3.0 | 7.0 | 0.00 | 0.00 | 0.00 | 32 | 1045.0 |
| 20260508221253 | 72 | 271 | 6.0 | 8.0 | 0.00 | 0.00 | 0.00 | 30 | 1044.9 |
| 20260508220750 | 72 | 238 | 3.0 | 7.0 | 0.00 | 0.00 | 0.00 | 34 | 1045.1 |
| 20260508220246 | 71 | 270 | 3.0 | 4.0 | 0.00 | 0.00 | 0.00 | 32 | 1044.8 |
| 20260508215742 | 72 | 225 | 2.0 | 7.0 | 0.00 | 0.00 | 0.00 | 30 | 1045.1 |
| 20260508215239 | 72 | 243 | 6.0 | 9.0 | 0.00 | 0.00 | 0.00 | 31 | 1045.0 |
| 20260508214736 | 72 | 246 | 4.0 | 6.0 | 0.00 | 0.00 | 0.00 | 32 | 1044.8 |
| 20260508214234 | 72 | 243 | 4.0 | 7.0 | 0.00 | 0.00 | 0.00 | 30 | 1045.1 |
| 20260508213730 | 72 | 224 | 4.0 | 10.0 | 0.00 | 0.00 | 0.00 | 31 | 1045.1 |
| 20260508213226 | 72 | 229 | 3.0 | 7.0 | 0.00 | 0.00 | 0.00 | 31 | 1044.8 |
| 20260508212723 | 73 | 209 | 9.0 | 10.0 | 0.00 | 0.00 | 0.00 | 29 | 1044.7 |
| 20260508212219 | 73 | 176 | 4.0 | 8.0 | 0.00 | 0.00 | 0.00 | 31 | 1044.8 |
| 20260508211715 | 73 | 180 | 2.0 | 6.0 | 0.00 | 0.00 | 0.00 | 28 | 1045.0 |
| 20260508211211 | 72 | 213 | 3.0 | 9.0 | 0.00 | 0.00 | 0.00 | 33 | 1045.2 |
| 20260508210709 | 73 | 303 | 9.0 | 13.0 | 0.00 | 0.00 | 0.00 | 30 | 1045.2 |
| 20260508210206 | 73 | 166 | 2.0 | 7.0 | 0.00 | 0.00 | 0.00 | 31 | 1045.3 |
| 20260508205702 | 72 | 309 | 3.0 | 6.0 | 0.00 | 0.00 | 0.00 | 33 | 1045.5 |
| 20260508205159 | 72 | 312 | 5.0 | 8.0 | 0.00 | 0.00 | 0.00 | 33 | 1045.4 |
| 20260508204655 | 72 | 184 | 3.0 | 9.0 | 0.00 | 0.00 | 0.00 | 31 | 1045.6 |
| 20260508204151 | 73 | 288 | 5.0 | 7.0 | 0.00 | 0.00 | 0.00 | 32 | 1045.8 |
| 20260508203648 | 73 | 222 | 2.0 | 9.0 | 0.00 | 0.00 | 0.00 | 34 | 1045.6 |
| 20260508203144 | 72 | 282 | 5.0 | 6.0 | 0.00 | 0.00 | 0.00 | 34 | 1045.7 |
| 20260508202640 | 72 | 213 | 1.0 | 4.0 | 0.00 | 0.00 | 0.00 | 36 | 1045.6 |
| 20260508202138 | 72 | 243 | 2.0 | 11.0 | 0.00 | 0.00 | 0.00 | 31 | 1046.1 |
| 20260508201634 | 72 | 189 | 1.0 | 7.0 | 0.00 | 0.00 | 0.00 | 33 | 1046.0 |
| 20260508201131 | 72 | 294 | 3.0 | 8.0 | 0.00 | 0.00 | 0.00 | 34 | 1046.2 |
| 20260508200628 | 72 | 203 | 2.0 | 7.0 | 0.00 | 0.00 | 0.00 | 34 | 1046.5 |
| 20260508200124 | 71 | 183 | 3.0 | 8.0 | 0.00 | 0.00 | 0.00 | 32 | 1046.6 |
| 20260508195620 | 72 | 127 | 6.0 | 13.0 | 0.00 | 0.00 | 0.00 | 31 | 1046.1 |
| 20260508195117 | 72 | 311 | 3.0 | 4.0 | 0.00 | 0.00 | 0.00 | 35 | 1046.4 |
| 20260508194613 | 72 | 261 | 4.0 | 4.0 | 0.00 | 0.00 | 0.00 | 32 | 1046.1 |
| 20260508194111 | 72 | 106 | 7.0 | 10.0 | 0.00 | 0.00 | 0.00 | 31 | 1046.3 |
| 20260508193608 | 72 | 162 | 3.0 | 7.0 | 0.00 | 0.00 | 0.00 | 33 | 1046.3 |
| 20260508193104 | 71 | 132 | 6.0 | 10.0 | 0.00 | 0.00 | 0.00 | 31 | 1046.2 |
| 20260508192601 | 71 | 228 | 2.0 | 10.0 | 0.00 | 0.00 | 0.00 | 35 | 1046.3 |
| 20260508192058 | 71 | 302 | 2.0 | 7.0 | 0.00 | 0.00 | 0.00 | 35 | 1046.4 |
| 20260508191554 | 71 | 176 | 2.0 | 10.0 | 0.00 | 0.00 | 0.00 | 31 | 1046.5 |
| 20260508191051 | 71 | 237 | 6.0 | 8.0 | 0.00 | 0.00 | 0.00 | 29 | 1046.5 |
| 20260508190548 | 71 | 217 | 5.0 | 10.0 | 0.00 | 0.00 | 0.00 | 32 | 1046.5 |
| 20260508190045 | 70 | 247 | 6.0 | 11.0 | 0.00 | 0.00 | 0.00 | 31 | 1046.5 |
| 20260508185542 | 71 | 266 | 4.0 | 9.0 | 0.00 | 0.00 | 0.00 | 35 | 1046.6 |
| 20260508185039 | 70 | 178 | 6.0 | 8.0 | 0.00 | 0.00 | 0.00 | 33 | 1046.8 |
| 20260508184537 | 71 | 269 | 5.0 | 10.0 | 0.00 | 0.00 | 0.00 | 35 | 1046.7 |
| 20260508184033 | 71 | 229 | 5.0 | 9.0 | 0.00 | 0.00 | 0.00 | 33 | 1047.1 |
| 20260508183530 | 70 | 249 | 2.0 | 7.0 | 0.00 | 0.00 | 0.00 | 33 | 1046.9 |
| 20260508183026 | 70 | 260 | 6.0 | 7.0 | 0.00 | 0.00 | 0.00 | 36 | 1047.0 |
| 20260508182523 | 70 | 194 | 4.0 | 8.0 | 0.00 | 0.00 | 0.00 | 34 | 1047.3 |
| 20260508182019 | 70 | 122 | 3.0 | 13.0 | 0.00 | 0.00 | 0.00 | 34 | 1047.2 |
| 20260508181515 | 70 | 138 | 4.0 | 10.0 | 0.00 | 0.00 | 0.00 | 34 | 1047.7 |
| 20260508181013 | 70 | 250 | 6.0 | 8.0 | 0.00 | 0.00 | 0.00 | 34 | 1047.7 |
| 20260508180509 | 70 | 253 | 2.0 | 4.0 | 0.00 | 0.00 | 0.00 | 36 | 1047.9 |
| 20260508180005 | 70 | 278 | 3.0 | 8.0 | 0.00 | 0.00 | 0.00 | 32 | 1047.8 |
| 20260508175502 | 70 | 219 | 4.0 | 10.0 | 0.00 | 0.00 | 0.00 | 32 | 1048.0 |
| 20260508174959 | 70 | 261 | 6.0 | 10.0 | 0.00 | 0.00 | 0.00 | 34 | 1048.2 |
| 20260508174457 | 70 | 153 | 5.0 | 9.0 | 0.00 | 0.00 | 0.00 | 38 | 1048.3 |
| 20260508173953 | 69 | 144 | 4.0 | 9.0 | 0.00 | 0.00 | 0.00 | 35 | 1048.4 |
| 20260508173451 | 69 | 184 | 3.0 | 6.0 | 0.00 | 0.00 | 0.00 | 34 | 1048.5 |
| 20260508172946 | 70 | 197 | 2.0 | 8.0 | 0.00 | 0.00 | 0.00 | 36 | 1048.5 |
| 20260508172444 | 70 | 307 | 9.0 | 11.0 | 0.00 | 0.00 | 0.00 | 38 | 1048.5 |
| 20260508171940 | 69 | 255 | 2.0 | 3.0 | 0.00 | 0.00 | 0.00 | 35 | 1048.5 |
| 20260508171437 | 68 | 162 | 6.0 | 10.0 | 0.00 | 0.00 | 0.00 | 35 | 1048.7 |
| 20260508170933 | 68 | 113 | 4.0 | 9.0 | 0.00 | 0.00 | 0.00 | 38 | 1048.9 |
| 20260508170431 | 68 | 149 | 5.0 | 9.0 | 0.00 | 0.00 | 0.00 | 36 | 1048.8 |
| 20260508165927 | 68 | 159 | 5.0 | 8.0 | 0.00 | 0.00 | 0.00 | 37 | 1049.0 |
| 20260508165426 | 69 | 273 | 3.0 | 4.0 | 0.00 | 0.00 | 0.00 | 38 | 1049.3 |
| 20260508164921 | 68 | 178 | 3.0 | 6.0 | 0.00 | 0.00 | 0.00 | 38 | 1049.1 |
| 20260508164418 | 68 | 247 | 4.0 | 6.0 | 0.00 | 0.00 | 0.00 | 38 | 1049.3 |
| 20260508163915 | 68 | 258 | 4.0 | 6.0 | 0.00 | 0.00 | 0.00 | 41 | 1049.5 |
| 20260508163413 | 68 | 317 | 1.0 | 4.0 | 0.00 | 0.00 | 0.00 | 40 | 1049.8 |
| 20260508162908 | 68 | 238 | 3.0 | 9.0 | 0.00 | 0.00 | 0.00 | 38 | 1049.6 |
| 20260508162406 | 68 | 216 | 2.0 | 6.0 | 0.00 | 0.00 | 0.00 | 38 | 1049.7 |
| 20260508161903 | 68 | 230 | 2.0 | 8.0 | 0.00 | 0.00 | 0.00 | 36 | 1049.6 |
| 20260508161400 | 68 | 196 | 4.0 | 6.0 | 0.00 | 0.00 | 0.00 | 38 | 1050.0 |
| 20260508160857 | 68 | 124 | 5.0 | 8.0 | 0.00 | 0.00 | 0.00 | 37 | 1050.0 |
| 20260508160356 | 66 | 249 | 2.0 | 3.0 | 0.00 | 0.00 | 0.00 | 40 | 1049.9 |
| 20260508155852 | 67 | 282 | 7.0 | 9.0 | 0.00 | 0.00 | 0.00 | 36 | 1049.9 |
| 20260508155349 | 67 | 213 | 4.0 | 6.0 | 0.00 | 0.00 | 0.00 | 42 | 1050.0 |
| 20260508154846 | 66 | 217 | 2.0 | 6.0 | 0.00 | 0.00 | 0.00 | 37 | 1050.1 |
| 20260508154344 | 66 | 276 | 2.0 | 7.0 | 0.00 | 0.00 | 0.00 | 38 | 1050.0 |
| 20260508153840 | 66 | 313 | 4.0 | 7.0 | 0.00 | 0.00 | 0.00 | 37 | 1050.4 |
| 20260508153337 | 66 | 156 | 5.0 | 8.0 | 0.00 | 0.00 | 0.00 | 39 | 1050.2 |
| 20260508152833 | 65 | 243 | 3.0 | 6.0 | 0.00 | 0.00 | 0.00 | 42 | 1050.3 |
| 20260508152330 | 65 | 285 | 3.0 | 7.0 | 0.00 | 0.00 | 0.00 | 40 | 1050.5 |
| 20260508151826 | 66 | 229 | 3.0 | 7.0 | 0.00 | 0.00 | 0.00 | 39 | 1050.5 |
| 20260508151323 | 65 | 276 | 2.0 | 4.0 | 0.00 | 0.00 | 0.00 | 42 | 1050.4 |
| 20260508150819 | 66 | 212 | 2.0 | 7.0 | 0.00 | 0.00 | 0.00 | 40 | 1050.5 |
| 20260508150316 | 65 | 221 | 2.0 | 4.0 | 0.00 | 0.00 | 0.00 | 42 | 1050.6 |
| 20260508145812 | 64 | 267 | 1.0 | 6.0 | 0.00 | 0.00 | 0.00 | 42 | 1050.7 |
| 20260508145309 | 64 | 322 | 7.0 | 8.0 | 0.00 | 0.00 | 0.00 | 41 | 1050.8 |
| 20260508144806 | 63 | 163 | 3.0 | 3.0 | 0.00 | 0.00 | 0.00 | 42 | 1050.7 |
| 20260508144304 | 64 | 140 | 3.0 | 6.0 | 0.00 | 0.00 | 0.00 | 45 | 1050.6 |
| 20260508143801 | 63 | 185 | 2.0 | 3.0 | 0.00 | 0.00 | 0.00 | 42 | 1050.7 |
| 20260508143258 | 63 | 252 | 3.0 | 6.0 | 0.00 | 0.00 | 0.00 | 43 | 1050.7 |
| 20260508142754 | 63 | 225 | 2.0 | 6.0 | 0.00 | 0.00 | 0.00 | 40 | 1050.6 |
| 20260508142251 | 62 | 273 | 4.0 | 7.0 | 0.00 | 0.00 | 0.00 | 44 | 1050.4 |
| 20260508141748 | 61 | 282 | 7.0 | 8.0 | 0.00 | 0.00 | 0.00 | 47 | 1050.5 |
| 20260508141245 | 61 | 291 | 4.0 | 7.0 | 0.00 | 0.00 | 0.00 | 50 | 1050.6 |
| 20260508140742 | 60 | 263 | 1.0 | 4.0 | 0.00 | 0.00 | 0.00 | 51 | 1050.7 |
| 20260508140239 | 59 | 253 | 3.0 | 7.0 | 0.00 | 0.00 | 0.00 | 49 | 1050.8 |
| 20260508135735 | 59 | 255 | 4.0 | 4.0 | 0.00 | 0.00 | 0.00 | 50 | 1050.6 |
| 20260508135231 | 58 | 216 | 2.0 | 3.0 | 0.00 | 0.00 | 0.00 | 52 | 1050.8 |
| 20260508134727 | 57 | 258 | 2.0 | 3.0 | 0.00 | 0.00 | 0.00 | 55 | 1050.6 |
| 20260508134225 | 57 | 272 | 4.0 | 4.0 | 0.00 | 0.00 | 0.00 | 56 | 1051.0 |
| 20260508133721 | 56 | 270 | 2.0 | 6.0 | 0.00 | 0.00 | 0.00 | 58 | 1050.8 |
| 20260508133219 | 55 | 233 | 3.0 | 3.0 | 0.00 | 0.00 | 0.00 | 57 | 1050.6 |
| 20260508132716 | 54 | 279 | 2.0 | 3.0 | 0.00 | 0.00 | 0.00 | 63 | 1050.8 |
| 20260508132214 | 54 | 297 | 3.0 | 3.0 | 0.00 | 0.00 | 0.00 | 61 | 1050.7 |
| 20260508131709 | 53 | 237 | 2.0 | 3.0 | 0.00 | 0.00 | 0.00 | 62 | 1050.9 |
| 20260508131206 | 52 | 290 | 3.0 | 3.0 | 0.00 | 0.00 | 0.00 | 65 | 1050.8 |
| 20260508130702 | 51 | 203 | 2.0 | 2.0 | 0.00 | 0.00 | 0.00 | 66 | 1050.7 |
| 20260508130200 | 51 | 253 | 1.0 | 1.0 | 0.00 | 0.00 | 0.00 | 65 | 1050.6 |
| 20260508125655 | 51 | 266 | 2.0 | 2.0 | 0.00 | 0.00 | 0.00 | 64 | 1050.6 |
| 20260508125151 | 51 | 247 | 3.0 | 4.0 | 0.00 | 0.00 | 0.00 | 64 | 1051.0 |
| 20260508124650 | 50 | 226 | 1.0 | 1.0 | 0.00 | 0.00 | 0.00 | 65 | 1050.7 |
| 20260508124146 | 50 | 118 | 2.0 | 3.0 | 0.00 | 0.00 | 0.00 | 66 | 1050.9 |
| 20260508123645 | 49 | 175 | 1.0 | 1.0 | 0.00 | 0.00 | 0.00 | 69 | 1050.6 |
| 20260508123142 | 49 | 186 | 2.0 | 2.0 | 0.00 | 0.00 | 0.00 | 64 | 1050.4 |
| 20260508122638 | 48 | 135 | 1.0 | 2.0 | 0.00 | 0.00 | 0.00 | 68 | 1050.5 |
| 20260508122135 | 48 | 141 | 1.0 | 2.0 | 0.00 | 0.00 | 0.00 | 67 | 1050.5 |
| 20260508121633 | 47 | 204 | 0.0 | 2.0 | 0.00 | 0.00 | 0.00 | 69 | 1050.5 |
| 20260508121132 | 47 | 165 | 0.0 | 2.0 | 0.00 | 0.00 | 0.00 | 69 | 1050.5 |
| 20260508120628 | 47 | 153 | 2.0 | 2.0 | 0.00 | 0.00 | 0.00 | 71 | 1050.3 |
| 20260508120127 | 46 | 125 | 1.0 | 2.0 | 0.00 | 0.00 | 0.00 | 72 | 1050.5 |
| 20260508115624 | 45 | 131 | 0.0 | 1.0 | 0.00 | 0.00 | 0.00 | 76 | 1050.7 |
| 20260508115120 | 44 | 115 | 0.0 | 1.0 | 0.00 | 0.00 | 0.00 | 77 | 1050.5 |
| 20260508114618 | 44 | 115 | 0.0 | 1.0 | 0.00 | 0.00 | 0.00 | 77 | 1050.6 |
| 20260508114113 | 44 | 118 | 1.0 | 1.0 | 0.00 | 0.00 | 0.00 | 78 | 1050.7 |
| 20260508113611 | 43 | 107 | 1.0 | 2.0 | 0.00 | 0.00 | 0.00 | 78 | 1050.3 |
| 20260508113109 | 42 | 115 | 1.0 | 2.0 | 0.00 | 0.00 | 0.00 | 82 | 1050.0 |
| 20260508112605 | 40 | 115 | 1.0 | 2.0 | 0.00 | 0.00 | 0.00 | 90 | 1050.1 |
| 20260508112102 | 40 | 119 | 0.0 | 0.0 | 0.00 | 0.00 | 0.00 | 92 | 1050.1 |
| 20260508111559 | 39 | 119 | 0.0 | 1.0 | 0.00 | 0.00 | 0.00 | 94 | 1050.1 |
| 20260508111056 | 38 | 114 | 0.0 | 0.0 | 0.00 | 0.00 | 0.00 | 94 | 1050.4 |
| 20260508110554 | 38 | 114 | 0.0 | 0.0 | 0.00 | 0.00 | 0.00 | 93 | 1050.1 |
| 20260508110050 | 38 | 114 | 0.0 | 0.0 | 0.00 | 0.00 | 0.00 | 93 | 1049.8 |
| 20260508105544 | 38 | 114 | 0.0 | 0.0 | 0.00 | 0.00 | 0.00 | 94 | 1050.0 |
| 20260508105042 | 38 | 114 | 0.0 | 0.0 | 0.00 | 0.00 | 0.00 | 93 | 1050.1 |
| 20260508104540 | 38 | 114 | 0.0 | 0.0 | 0.00 | 0.00 | 0.00 | 93 | 1050.0 |
| 20260508104036 | 38 | 114 | 0.0 | 0.0 | 0.00 | 0.00 | 0.00 | 93 | 1049.8 |
| 20260508103533 | 38 | 114 | 0.0 | 0.0 | 0.00 | 0.00 | 0.00 | 93 | 1049.9 |
| 20260508103031 | 38 | 114 | 0.0 | 0.0 | 0.00 | 0.00 | 0.00 | 93 | 1049.7 |
| 20260508102528 | 38 | 114 | 0.0 | 0.0 | 0.00 | 0.00 | 0.00 | 92 | 1050.0 |
| 20260508102026 | 38 | 114 | 0.0 | 0.0 | 0.00 | 0.00 | 0.00 | 92 | 1049.8 |
| 20260508101523 | 37 | 114 | 0.0 | 0.0 | 0.00 | 0.00 | 0.00 | 91 | 1049.6 |
| 20260508101020 | 38 | 114 | 0.0 | 0.0 | 0.00 | 0.00 | 0.00 | 90 | 1049.7 |
| 20260508100518 | 38 | 114 | 0.0 | 0.0 | 0.00 | 0.00 | 0.00 | 90 | 1049.8 |
| 20260508100015 | 38 | 114 | 0.0 | 0.0 | 0.00 | 0.00 | 0.00 | 89 | 1049.7 |
| 20260508095512 | 39 | 114 | 0.0 | 0.0 | 0.00 | 0.00 | 0.00 | 89 | 1049.7 |
| 20260508095009 | 39 | 114 | 0.0 | 0.0 | 0.00 | 0.00 | 0.00 | 88 | 1049.6 |
| 20260508094506 | 40 | 114 | 0.0 | 0.0 | 0.00 | 0.00 | 0.00 | 87 | 1049.6 |
| 20260508094003 | 40 | 114 | 0.0 | 0.0 | 0.00 | 0.00 | 0.00 | 86 | 1049.7 |
| 20260508093500 | 41 | 114 | 0.0 | 0.0 | 0.00 | 0.00 | 0.00 | 84 | 1049.8 |
| 20260508092957 | 41 | 114 | 0.0 | 2.0 | 0.00 | 0.00 | 0.00 | 84 | 1049.8 |
| 20260508092455 | 41 | 105 | 1.0 | 1.0 | 0.00 | 0.00 | 0.00 | 84 | 1049.6 |
| 20260508091954 | 40 | 105 | 0.0 | 1.0 | 0.00 | 0.00 | 0.00 | 87 | 1049.8 |
| 20260508091450 | 41 | 105 | 0.0 | 0.0 | 0.00 | 0.00 | 0.00 | 86 | 1049.9 |
| 20260508090947 | 41 | 105 | 0.0 | 0.0 | 0.00 | 0.00 | 0.00 | 87 | 1049.5 |
| 20260508090445 | 40 | 104 | 0.0 | 1.0 | 0.00 | 0.00 | 0.00 | 88 | 1049.9 |
| 20260508085941 | 40 | 104 | 0.0 | 0.0 | 0.00 | 0.00 | 0.00 | 88 | 1049.7 |
| 20260508085438 | 41 | 104 | 0.0 | 0.0 | 0.00 | 0.00 | 0.00 | 86 | 1049.9 |
| 20260508084935 | 41 | 104 | 0.0 | 0.0 | 0.00 | 0.00 | 0.00 | 86 | 1049.8 |
| 20260508084431 | 40 | 81 | 1.0 | 1.0 | 0.00 | 0.00 | 0.00 | 87 | 1049.8 |
| 20260508083929 | 40 | 55 | 0.0 | 0.0 | 0.00 | 0.00 | 0.00 | 87 | 1049.9 |
| 20260508083426 | 40 | 55 | 0.0 | 0.0 | 0.00 | 0.00 | 0.00 | 88 | 1049.8 |
| 20260508082926 | 40 | 55 | 0.0 | 0.0 | 0.00 | 0.00 | 0.00 | 88 | 1050.0 |
| 20260508082424 | 40 | 55 | 0.0 | 0.0 | 0.00 | 0.00 | 0.00 | 88 | 1049.9 |
| 20260508081922 | 40 | 55 | 0.0 | 0.0 | 0.00 | 0.00 | 0.00 | 89 | 1049.9 |
| 20260508081418 | 40 | 55 | 0.0 | 0.0 | 0.00 | 0.00 | 0.00 | 90 | 1049.7 |
| 20260508080914 | 40 | 55 | 0.0 | 0.0 | 0.00 | 0.00 | 0.00 | 92 | 1050.0 |
| 20260508080413 | 39 | 55 | 0.0 | 0.0 | 0.00 | 0.00 | 0.00 | 93 | 1049.8 |
| 20260508075909 | 39 | 55 | 0.0 | 0.0 | 0.00 | 0.00 | 0.00 | 93 | 1049.7 |
| 20260508075406 | 39 | 55 | 0.0 | 0.0 | 0.00 | 0.00 | 0.00 | 93 | 1049.8 |
| 20260508074904 | 39 | 55 | 0.0 | 1.0 | 0.00 | 0.00 | 0.00 | 93 | 1049.8 |
| 20260508074401 | 38 | 55 | 0.0 | 0.0 | 0.00 | 0.00 | 0.00 | 93 | 1049.7 |
| 20260508073858 | 39 | 55 | 0.0 | 0.0 | 0.00 | 0.00 | 0.00 | 92 | 1049.7 |
| 20260508073356 | 39 | 55 | 0.0 | 0.0 | 0.00 | 0.00 | 0.00 | 94 | 1049.8 |
| 20260508072852 | 39 | 55 | 0.0 | 1.0 | 0.00 | 0.00 | 0.00 | 94 | 1049.7 |
| 20260508072348 | 38 | 55 | 0.0 | 0.0 | 0.00 | 0.00 | 0.00 | 94 | 1049.8 |
| 20260508071846 | 38 | 55 | 0.0 | 0.0 | 0.00 | 0.00 | 0.00 | 93 | 1049.9 |
| 20260508071344 | 38 | 55 | 0.0 | 0.0 | 0.00 | 0.00 | 0.00 | 93 | 1049.8 |
| 20260508070841 | 39 | 55 | 0.0 | 0.0 | 0.00 | 0.00 | 0.00 | 93 | 1049.8 |
| 20260508070339 | 39 | 55 | 0.0 | 0.0 | 0.00 | 0.00 | 0.00 | 93 | 1049.8 |
| 20260508065837 | 39 | 55 | 0.0 | 0.0 | 0.00 | 0.00 | 0.00 | 93 | 1049.9 |
| 20260508065335 | 39 | 55 | 0.0 | 0.0 | 0.00 | 0.00 | 0.00 | 93 | 1049.8 |
| 20260508064833 | 39 | 55 | 0.0 | 0.0 | 0.00 | 0.00 | 0.00 | 94 | 1049.7 |
| 20260508064330 | 39 | 55 | 0.0 | 0.0 | 0.00 | 0.00 | 0.00 | 94 | 1049.6 |
| 20260508063827 | 39 | 55 | 0.0 | 0.0 | 0.00 | 0.00 | 0.00 | 93 | 1049.8 |
| 20260508063325 | 39 | 55 | 0.0 | 0.0 | 0.00 | 0.00 | 0.00 | 93 | 1049.8 |
| 20260508062822 | 39 | 55 | 0.0 | 0.0 | 0.00 | 0.00 | 0.00 | 93 | 1049.9 |
| 20260508062320 | 39 | 55 | 0.0 | 0.0 | 0.00 | 0.00 | 0.00 | 93 | 1049.9 |
| 20260508061816 | 39 | 55 | 0.0 | 0.0 | 0.00 | 0.00 | 0.00 | 93 | 1049.9 |
| 20260508061314 | 39 | 55 | 0.0 | 0.0 | 0.00 | 0.00 | 0.00 | 93 | 1049.9 |
| 20260508060810 | 39 | 55 | 0.0 | 0.0 | 0.00 | 0.00 | 0.00 | 92 | 1050.1 |
| 20260508060309 | 39 | 55 | 0.0 | 0.0 | 0.00 | 0.00 | 0.00 | 92 | 1050.0 |
| 20260508055808 | 39 | 55 | 0.0 | 0.0 | 0.00 | 0.00 | 0.00 | 92 | 1050.0 |
| 20260508055307 | 40 | 55 | 0.0 | 0.0 | 0.00 | 0.00 | 0.00 | 92 | 1050.3 |
| 20260508054803 | 40 | 59 | 1.0 | 1.0 | 0.00 | 0.00 | 0.00 | 92 | 1050.3 |
| 20260508054300 | 40 | 105 | 0.0 | 0.0 | 0.00 | 0.00 | 0.00 | 92 | 1050.4 |
| 20260508053757 | 40 | 105 | 0.0 | 0.0 | 0.00 | 0.00 | 0.00 | 93 | 1050.4 |
| 20260508053255 | 40 | 104 | 0.0 | 0.0 | 0.00 | 0.00 | 0.00 | 91 | 1050.4 |
| 20260508052752 | 40 | 104 | 0.0 | 0.0 | 0.00 | 0.00 | 0.00 | 91 | 1050.4 |
| 20260508052249 | 40 | 104 | 0.0 | 0.0 | 0.00 | 0.00 | 0.00 | 91 | 1050.2 |
| 20260508051745 | 40 | 104 | 0.0 | 0.0 | 0.00 | 0.00 | 0.00 | 91 | 1050.3 |
| 20260508051240 | 40 | 104 | 0.0 | 0.0 | 0.00 | 0.00 | 0.00 | 89 | 1050.4 |
| 20260508050737 | 41 | 104 | 0.0 | 0.0 | 0.00 | 0.00 | 0.00 | 88 | 1050.2 |
| 20260508050234 | 42 | 104 | 0.0 | 0.0 | 0.00 | 0.00 | 0.00 | 89 | 1050.2 |
| 20260508045729 | 41 | 104 | 1.0 | 1.0 | 0.00 | 0.00 | 0.00 | 91 | 1049.9 |
| 20260508045228 | 41 | 313 | 0.0 | 0.0 | 0.00 | 0.00 | 0.00 | 90 | 1050.1 |
| 20260508044725 | 41 | 313 | 0.0 | 0.0 | 0.00 | 0.00 | 0.00 | 90 | 1050.0 |
| 20260508044222 | 41 | 313 | 0.0 | 0.0 | 0.00 | 0.00 | 0.00 | 90 | 1050.0 |
| 20260508043717 | 41 | 313 | 0.0 | 0.0 | 0.00 | 0.00 | 0.00 | 89 | 1049.9 |
| 20260508043216 | 41 | 313 | 0.0 | 0.0 | 0.00 | 0.00 | 0.00 | 88 | 1050.1 |
| 20260508042712 | 41 | 313 | 1.0 | 1.0 | 0.00 | 0.00 | 0.00 | 89 | 1050.2 |
| 20260508042209 | 41 | 313 | 0.0 | 0.0 | 0.00 | 0.00 | 0.00 | 88 | 1050.2 |
| 20260508041705 | 41 | 313 | 0.0 | 0.0 | 0.00 | 0.00 | 0.00 | 88 | 1050.1 |
| 20260508041203 | 41 | 313 | 0.0 | 0.0 | 0.00 | 0.00 | 0.00 | 89 | 1050.2 |
| 20260508040659 | 42 | 313 | 0.0 | 0.0 | 0.00 | 0.00 | 0.00 | 89 | 1050.0 |
| 20260508040157 | 42 | 313 | 0.0 | 0.0 | 0.00 | 0.00 | 0.00 | 88 | 1049.9 |
| 20260508035654 | 42 | 313 | 0.0 | 0.0 | 0.00 | 0.00 | 0.00 | 88 | 1050.0 |
| 20260508035151 | 42 | 313 | 0.0 | 0.0 | 0.00 | 0.00 | 0.00 | 87 | 1050.1 |
| 20260508034647 | 42 | 313 | 0.0 | 0.0 | 0.00 | 0.00 | 0.00 | 86 | 1050.1 |
| 20260508034144 | 43 | 313 | 0.0 | 0.0 | 0.00 | 0.00 | 0.00 | 85 | 1049.9 |
| 20260508033642 | 42 | 313 | 0.0 | 0.0 | 0.00 | 0.00 | 0.00 | 87 | 1050.0 |
| 20260508033141 | 43 | 313 | 0.0 | 0.0 | 0.00 | 0.00 | 0.00 | 87 | 1050.0 |
| 20260508032636 | 43 | 313 | 0.0 | 0.0 | 0.00 | 0.00 | 0.00 | 87 | 1050.0 |
| 20260508032134 | 43 | 313 | 0.0 | 0.0 | 0.00 | 0.00 | 0.00 | 87 | 1050.3 |
| 20260508031631 | 44 | 313 | 0.0 | 0.0 | 0.00 | 0.00 | 0.00 | 84 | 1050.1 |
| 20260508031127 | 44 | 313 | 0.0 | 0.0 | 0.00 | 0.00 | 0.00 | 83 | 1050.3 |
| 20260508030623 | 44 | 313 | 0.0 | 0.0 | 0.00 | 0.00 | 0.00 | 81 | 1049.9 |
| 20260508030121 | 44 | 313 | 0.0 | 0.0 | 0.00 | 0.00 | 0.00 | 84 | 1050.3 |
| 20260508025617 | 45 | 313 | 0.0 | 0.0 | 0.00 | 0.00 | 0.00 | 82 | 1050.2 |
| 20260508025115 | 44 | 313 | 0.0 | 0.0 | 0.00 | 0.00 | 0.00 | 82 | 1050.0 |
| 20260508024610 | 45 | 313 | 0.0 | 0.0 | 0.00 | 0.00 | 0.00 | 81 | 1050.0 |
| 20260508024108 | 45 | 313 | 0.0 | 0.0 | 0.00 | 0.00 | 0.00 | 78 | 1050.0 |
| 20260508023604 | 46 | 313 | 0.0 | 0.0 | 0.00 | 0.00 | 0.00 | 72 | 1049.9 |
| 20260508023101 | 46 | 313 | 0.0 | 0.0 | 0.00 | 0.00 | 0.00 | 82 | 1049.8 |
| 20260508022557 | 46 | 313 | 0.0 | 0.0 | 0.00 | 0.00 | 0.00 | 80 | 1050.1 |
| 20260508022054 | 46 | 313 | 0.0 | 0.0 | 0.00 | 0.00 | 0.00 | 82 | 1050.0 |
| 20260508021550 | 46 | 313 | 0.0 | 0.0 | 0.00 | 0.00 | 0.00 | 81 | 1050.0 |
| 20260508021046 | 46 | 313 | 0.0 | 0.0 | 0.00 | 0.00 | 0.00 | 77 | 1049.9 |
| 20260508020544 | 47 | 313 | 0.0 | 0.0 | 0.00 | 0.00 | 0.00 | 78 | 1049.8 |
| 20260508020041 | 47 | 313 | 0.0 | 0.0 | 0.00 | 0.00 | 0.00 | 75 | 1049.9 |
| 20260508015539 | 47 | 313 | 0.0 | 0.0 | 0.00 | 0.00 | 0.00 | 67 | 1049.7 |
| 20260508015036 | 47 | 313 | 0.0 | 0.0 | 0.00 | 0.00 | 0.00 | 67 | 1049.5 |
| 20260508014532 | 48 | 313 | 0.0 | 0.0 | 0.00 | 0.00 | 0.00 | 75 | 1049.6 |
| 20260508014028 | 48 | 313 | 0.0 | 0.0 | 0.00 | 0.00 | 0.00 | 79 | 1049.4 |
| 20260508013524 | 48 | 313 | 0.0 | 0.0 | 0.00 | 0.00 | 0.00 | 78 | 1049.4 |
| 20260508013021 | 49 | 313 | 0.0 | 0.0 | 0.00 | 0.00 | 0.00 | 76 | 1049.4 |
| 20260508012519 | 49 | 313 | 0.0 | 0.0 | 0.00 | 0.00 | 0.00 | 77 | 1049.2 |
| 20260508012016 | 49 | 313 | 0.0 | 0.0 | 0.00 | 0.00 | 0.00 | 78 | 1049.3 |
| 20260508011514 | 49 | 313 | 0.0 | 0.0 | 0.00 | 0.00 | 0.00 | 75 | 1049.2 |
| 20260508011011 | 50 | 313 | 0.0 | 0.0 | 0.00 | 0.00 | 0.00 | 70 | 1049.4 |
| 20260508010508 | 51 | 313 | 0.0 | 0.0 | 0.00 | 0.00 | 0.00 | 69 | 1049.4 |
| 20260508010006 | 51 | 313 | 0.0 | 0.0 | 0.00 | 0.00 | 0.00 | 66 | 1049.1 |
| 20260508005502 | 52 | 313 | 0.0 | 0.0 | 0.00 | 0.00 | 0.00 | 68 | 1048.9 |
| 20260508004959 | 53 | 313 | 0.0 | 0.0 | 0.00 | 0.00 | 0.00 | 64 | 1048.7 |
| 20260508004454 | 54 | 313 | 0.0 | 0.0 | 0.00 | 0.00 | 0.00 | 64 | 1048.9 |
| 20260508003951 | 56 | 313 | 0.0 | 0.0 | 0.00 | 0.00 | 0.00 | 57 | 1048.9 |
| 20260508003448 | 57 | 313 | 0.0 | 0.0 | 0.00 | 0.00 | 0.00 | 57 | 1048.8 |
| 20260508002945 | 59 | 313 | 0.0 | 0.0 | 0.00 | 0.00 | 0.00 | 51 | 1048.8 |
| 20260508002442 | 60 | 313 | 0.0 | 0.0 | 0.00 | 0.00 | 0.00 | 44 | 1049.0 |
| 20260508001938 | 62 | 313 | 0.0 | 0.0 | 0.00 | 0.00 | 0.00 | 39 | 1048.9 |
| 20260508001434 | 62 | 313 | 0.0 | 1.0 | 0.00 | 0.00 | 0.00 | 37 | 1048.8 |
| 20260508000931 | 63 | 313 | 0.0 | 0.0 | 0.00 | 0.00 | 0.00 | 35 | 1048.7 |
| 20260508000427 | 63 | 313 | 0.0 | 0.0 | 0.00 | 0.00 | 0.00 | 34 | 1049.0 |
| 20260507235924 | 63 | 309 | 1.0 | 1.0 | 0.00 | 0.00 | 0.00 | 34 | 1048.6 |
| 20260507235421 | 62 | 309 | 1.0 | 1.0 | 0.00 | 0.00 | 0.00 | 34 | 1048.7 |
| 20260507234918 | 61 | 311 | 0.0 | 1.0 | 0.00 | 0.00 | 0.00 | 36 | 1048.8 |
| 20260507234415 | 61 | 302 | 3.0 | 3.0 | 0.00 | 0.00 | 0.00 | 35 | 1048.5 |
| 20260507233911 | 62 | 291 | 2.0 | 3.0 | 0.00 | 0.00 | 0.00 | 34 | 1048.4 |
| 20260507233408 | 63 | 280 | 2.0 | 3.0 | 0.00 | 0.00 | 0.00 | 36 | 1048.3 |
| 20260507232907 | 62 | 275 | 1.0 | 1.0 | 0.00 | 0.00 | 0.00 | 35 | 1048.7 |
| 20260507232403 | 62 | 333 | 1.0 | 3.0 | 0.00 | 0.00 | 0.00 | 34 | 1048.5 |
| 20260507231900 | 62 | 289 | 3.0 | 3.0 | 0.00 | 0.00 | 0.00 | 33 | 1048.4 |
| 20260507231357 | 63 | 289 | 3.0 | 3.0 | 0.00 | 0.00 | 0.00 | 35 | 1048.5 |
| 20260507230853 | 63 | 324 | 3.0 | 6.0 | 0.00 | 0.00 | 0.00 | 33 | 1048.6 |
| 20260507230351 | 64 | 318 | 4.0 | 7.0 | 0.00 | 0.00 | 0.00 | 33 | 1048.6 |
| 20260507225850 | 64 | 293 | 2.0 | 2.0 | 0.00 | 0.00 | 0.00 | 32 | 1048.6 |